createdAt,value
2023-05-03T03:47:59.800Z,95.40
2023-05-03T03:50:26.977Z,95.30
2023-05-03T03:52:56.810Z,95.30
2023-05-03T03:55:23.980Z,95.50
2023-05-03T03:57:51.375Z,95.50
2023-05-03T04:00:18.458Z,95.50
2023-05-03T04:02:47.082Z,95.30
2023-05-03T04:05:14.588Z,95.40
2023-05-03T04:07:41.670Z,95.20
2023-05-03T04:10:09.028Z,95.50
2023-05-03T04:12:36.095Z,95.40
2023-05-03T04:15:03.457Z,95.50
2023-05-03T04:17:32.057Z,95.30
2023-05-03T04:19:59.133Z,95.10
2023-05-03T04:22:26.520Z,95.40
2023-05-03T04:24:54.908Z,95.40
2023-05-03T04:27:21.955Z,95.60
2023-05-03T04:29:49.223Z,95.60
2023-05-03T04:32:17.031Z,95.50
2023-05-03T04:34:44.370Z,95.60
2023-05-03T04:37:11.604Z,95.50
2023-05-03T04:39:38.596Z,95.60
2023-05-03T04:42:05.695Z,95.90
2023-05-03T04:44:33.099Z,95.80
2023-05-03T04:47:00.275Z,96.00
2023-05-03T04:49:27.374Z,95.80
2023-05-03T04:51:55.218Z,96.00
2023-05-03T04:54:23.359Z,95.80
2023-05-03T04:56:51.021Z,96.40
2023-05-03T04:59:18.024Z,96.50
2023-05-03T05:01:45.051Z,96.20
2023-05-03T05:04:12.024Z,96.10
2023-05-03T05:06:39.232Z,96.10
2023-05-03T05:09:07.485Z,96.50
2023-05-03T05:11:35.058Z,96.40
2023-05-03T05:14:02.132Z,96.00
2023-05-03T05:16:32.158Z,96.40
2023-05-03T05:18:59.240Z,96.20
2023-05-03T05:21:27.046Z,96.30
2023-05-03T05:23:54.080Z,96.30
2023-05-03T05:26:21.283Z,96.50
2023-05-03T05:28:48.344Z,96.50
2023-05-03T05:31:15.704Z,96.80
2023-05-03T05:33:42.895Z,96.90
2023-05-03T05:36:09.977Z,97.10
2023-05-03T05:38:37.169Z,97.10
2023-05-03T05:41:05.275Z,97.30
2023-05-03T05:43:33.569Z,97.40
2023-05-03T05:46:01.753Z,97.40
2023-05-03T05:48:28.814Z,97.30
2023-05-03T05:50:56.368Z,97.70
2023-05-03T05:53:24.793Z,97.80
2023-05-03T05:55:51.939Z,98.10
2023-05-03T05:58:18.990Z,98.40
2023-05-03T06:00:49.234Z,97.70
2023-05-03T06:03:16.612Z,97.80
2023-05-03T06:05:44.033Z,97.60
2023-05-03T06:08:11.397Z,97.60
2023-05-03T06:10:38.419Z,98.10
2023-05-03T06:13:05.668Z,98.20
2023-05-03T06:15:33.180Z,98.20
2023-05-03T06:18:00.609Z,98.30
2023-05-03T06:20:27.672Z,98.30
2023-05-03T06:22:56.072Z,98.50
2023-05-03T06:25:23.169Z,98.50
2023-05-03T06:27:50.372Z,98.90
2023-05-03T06:30:17.524Z,99.00
2023-05-03T06:32:47.328Z,99.00
2023-05-03T06:35:14.435Z,99.50
2023-05-03T06:37:43.869Z,99.40
2023-05-03T06:40:11.631Z,99.40
2023-05-03T06:42:39.004Z,99.50
2023-05-03T06:45:06.611Z,99.40
2023-05-03T06:47:43.016Z,99.40
2023-05-03T06:50:16.861Z,99.60
2023-05-03T06:52:49.197Z,99.20
2023-05-03T06:55:28.951Z,99.30
2023-05-03T06:58:14.262Z,99.30
2023-05-03T07:00:59.799Z,99.10
2023-05-03T07:03:39.954Z,99.10
2023-05-03T07:06:14.625Z,98.70
2023-05-03T07:09:02.147Z,99.00
2023-05-03T07:14:30.454Z,99.20
2023-05-03T07:17:06.962Z,99.20
2023-05-03T07:19:42.842Z,99.40
2023-05-03T07:22:28.318Z,99.30
2023-05-03T07:25:05.340Z,99.40
2023-05-03T07:27:35.817Z,99.50
2023-05-03T07:30:09.144Z,99.60
2023-05-03T07:32:48.335Z,99.50
2023-05-03T07:35:15.650Z,99.30
2023-05-03T07:37:54.060Z,99.00
2023-05-03T07:40:29.738Z,98.90
2023-05-03T07:43:15.628Z,99.10
2023-05-03T07:48:39.403Z,99.00
2023-05-03T07:51:24.872Z,99.10
2023-05-03T07:54:14.969Z,98.80
2023-05-03T07:57:01.527Z,98.80
2023-05-03T07:59:43.956Z,98.80
2023-05-03T08:08:09.976Z,98.90
2023-05-03T08:10:45.422Z,98.90
2023-05-03T08:13:48.302Z,98.60
2023-05-03T08:16:35.078Z,98.80
2023-05-03T08:21:54.431Z,98.30
2023-05-03T08:27:52.954Z,98.40
2023-05-03T08:33:37.007Z,98.90
2023-05-03T08:36:30.807Z,98.40
2023-05-03T08:50:31.756Z,98.70
2023-05-03T08:52:59.560Z,98.60
2023-05-03T08:55:26.540Z,98.70
2023-05-03T08:57:53.489Z,98.70
2023-05-03T09:00:28.106Z,98.80
2023-05-03T09:02:55.167Z,97.70
2023-05-03T09:05:22.267Z,98.00
2023-05-03T09:08:05.972Z,97.60
2023-05-03T09:10:34.127Z,97.70
2023-05-03T09:13:02.184Z,97.90
2023-05-03T09:15:30.484Z,98.30
2023-05-03T09:18:17.405Z,97.90
2023-05-03T09:20:52.311Z,98.00
2023-05-03T09:23:31.084Z,97.90
2023-05-03T09:25:58.652Z,97.90
2023-05-03T09:28:25.598Z,97.50
2023-05-03T09:31:07.110Z,97.50
2023-05-03T09:33:34.149Z,97.70
2023-05-03T09:36:02.414Z,97.40
2023-05-03T09:38:30.454Z,97.40
2023-05-03T09:40:57.718Z,97.30
2023-05-03T09:43:25.081Z,97.30
2023-05-03T09:45:52.088Z,97.30
2023-05-03T09:48:23.465Z,97.70
2023-05-03T09:50:51.217Z,97.40
2023-05-03T09:53:19.987Z,97.30
2023-05-03T09:55:47.689Z,97.60
2023-05-03T09:58:15.315Z,97.70
2023-05-03T10:00:43.829Z,97.60
2023-05-03T10:03:12.482Z,97.10
2023-05-03T10:05:49.732Z,97.10
2023-05-03T10:08:19.530Z,96.70
2023-05-03T10:10:48.652Z,96.80
2023-05-03T10:13:15.879Z,97.00
2023-05-03T10:15:44.122Z,97.40
2023-05-03T10:18:13.375Z,97.20
2023-05-03T10:20:43.754Z,97.90
2023-05-03T10:23:12.622Z,97.60
2023-05-03T10:25:45.564Z,97.60
2023-05-03T10:28:13.180Z,97.70
2023-05-03T10:30:40.509Z,97.30
2023-05-03T10:33:13.586Z,97.10
2023-05-03T10:35:41.870Z,96.70
2023-05-03T10:38:15.294Z,96.70
2023-05-03T10:40:46.545Z,96.70
2023-05-03T10:43:28.645Z,96.70
2023-05-03T10:45:58.974Z,96.90
2023-05-03T10:48:26.563Z,97.10
2023-05-03T10:50:53.619Z,97.00
2023-05-03T10:53:37.019Z,97.10
2023-05-03T10:56:06.620Z,96.80
2023-05-03T10:58:55.948Z,96.10
2023-05-03T11:01:23.260Z,96.10
2023-05-03T11:03:52.383Z,96.10
2023-05-03T11:06:36.473Z,95.50
2023-05-03T11:09:04.601Z,95.40
2023-05-03T11:11:31.639Z,95.90
2023-05-03T11:13:58.962Z,95.30
2023-05-03T11:16:26.560Z,95.40
2023-05-03T11:18:53.849Z,94.40
2023-05-03T11:21:21.141Z,94.40
2023-05-03T11:23:48.204Z,94.60
2023-05-03T11:26:15.126Z,94.70
2023-05-03T11:28:42.749Z,94.70
2023-05-03T11:31:10.511Z,93.50
2023-05-03T11:33:38.264Z,93.60
2023-05-03T11:36:06.305Z,93.50
2023-05-03T11:38:33.536Z,93.70
2023-05-03T11:41:01.515Z,93.40
2023-05-03T11:43:29.011Z,92.50
2023-05-03T11:45:57.557Z,91.90
2023-05-03T11:48:26.049Z,92.60
2023-05-03T11:50:56.511Z,93.30
2023-05-03T11:53:24.055Z,92.80
2023-05-03T11:55:53.155Z,92.40
2023-05-03T11:58:24.859Z,92.60
2023-05-03T12:00:55.856Z,92.80
2023-05-03T12:03:24.791Z,93.30
2023-05-03T12:05:53.462Z,93.80
2023-05-03T12:08:22.400Z,93.80
2023-05-03T12:10:53.398Z,92.70
2023-05-03T12:13:30.053Z,93.20
2023-05-03T12:16:10.210Z,93.20
2023-05-03T12:18:46.867Z,92.60
2023-05-03T12:23:46.124Z,93.20
2023-05-03T12:26:14.526Z,93.30
2023-05-03T12:28:41.992Z,93.30
2023-05-03T12:31:09.164Z,93.00
2023-05-03T12:33:38.619Z,92.80
2023-05-03T12:36:09.622Z,92.80
2023-05-03T12:38:37.789Z,92.70
2023-05-03T12:41:08.822Z,92.70
2023-05-03T12:43:36.563Z,92.50
2023-05-03T12:46:25.107Z,93.00
2023-05-03T12:48:53.707Z,92.30
2023-05-03T12:51:25.739Z,93.20
2023-05-03T12:53:55.067Z,93.00
2023-05-03T12:56:24.967Z,93.50
2023-05-03T12:59:20.081Z,93.20
2023-05-03T13:06:46.772Z,93.10
2023-05-03T13:09:20.736Z,92.90
2023-05-03T13:11:50.204Z,93.50
2023-05-03T13:14:18.014Z,92.60
2023-05-03T13:16:45.639Z,93.20
2023-05-03T13:19:12.918Z,93.30
2023-05-03T13:21:39.985Z,93.00
2023-05-03T13:24:07.140Z,92.50
2023-05-03T13:26:35.500Z,92.70
2023-05-03T13:29:02.709Z,92.90
2023-05-03T13:31:30.226Z,92.90
2023-05-03T13:33:57.347Z,92.50
2023-05-03T13:36:24.485Z,92.00
2023-05-03T13:38:51.986Z,92.00
2023-05-03T13:41:19.539Z,92.10
2023-05-03T13:43:47.172Z,92.30
2023-05-03T13:46:14.405Z,92.40
2023-05-03T13:48:41.969Z,92.00
2023-05-03T13:51:09.315Z,92.50
2023-05-03T13:53:36.249Z,92.30
2023-05-03T13:56:03.955Z,92.20
2023-05-03T13:58:30.961Z,92.30
2023-05-03T14:00:58.183Z,92.10
2023-05-03T14:03:25.319Z,92.60
2023-05-03T14:05:52.347Z,92.70
2023-05-03T14:08:19.321Z,92.40
2023-05-03T14:10:46.241Z,92.30
2023-05-03T14:13:13.192Z,92.00
2023-05-03T14:15:41.191Z,92.00
2023-05-03T14:18:08.837Z,92.40
2023-05-03T14:20:36.290Z,91.80
2023-05-03T14:23:03.821Z,91.40
2023-05-03T14:25:30.828Z,92.30
2023-05-03T14:27:57.847Z,92.10
2023-05-03T14:30:24.748Z,91.80
2023-05-03T14:32:52.552Z,91.90
2023-05-03T14:35:20.089Z,91.50
2023-05-03T14:37:47.142Z,91.50
2023-05-03T14:40:14.485Z,91.80
2023-05-03T14:42:41.512Z,91.50
2023-05-03T14:45:11.000Z,91.00
2023-05-03T14:47:39.650Z,90.80
2023-05-03T14:50:07.076Z,90.90
2023-05-03T14:52:35.195Z,90.00
2023-05-03T14:55:02.275Z,89.80
2023-05-03T14:57:31.529Z,90.30
2023-05-03T14:59:59.997Z,91.70
2023-05-03T15:02:27.333Z,91.50
2023-05-03T15:04:54.308Z,91.50
2023-05-03T15:07:21.288Z,91.40
2023-05-03T15:09:48.214Z,90.80
2023-05-03T15:12:15.914Z,90.70
2023-05-03T15:14:43.023Z,91.20
2023-05-03T15:17:10.038Z,91.10
2023-05-03T15:19:37.246Z,90.60
2023-05-03T15:22:04.155Z,90.00
2023-05-03T15:24:31.173Z,89.60
2023-05-03T15:27:00.358Z,90.70
2023-05-03T15:29:27.380Z,90.50
2023-05-03T15:31:54.279Z,90.30
2023-05-03T15:34:21.217Z,90.40
2023-05-03T15:36:48.171Z,90.80
2023-05-03T15:39:15.382Z,90.00
2023-05-03T15:41:42.451Z,90.10
2023-05-03T15:44:09.737Z,88.90
2023-05-03T15:46:37.286Z,89.80
2023-05-03T15:49:04.774Z,90.50
2023-05-03T15:51:32.023Z,90.50
2023-05-03T15:53:59.076Z,90.40
2023-05-03T15:56:27.590Z,88.50
2023-05-03T15:58:54.733Z,88.80
2023-05-03T16:01:21.674Z,90.30
2023-05-03T16:03:48.710Z,90.00
2023-05-03T16:06:18.474Z,90.30
2023-05-03T16:08:45.635Z,89.60
2023-05-03T16:11:13.316Z,90.10
2023-05-03T16:13:40.568Z,89.80
2023-05-03T16:16:07.513Z,89.70
2023-05-03T16:18:34.584Z,89.20
2023-05-03T16:21:02.432Z,89.20
2023-05-03T16:23:29.503Z,88.40
2023-05-03T16:25:56.603Z,89.70
2023-05-03T16:28:23.685Z,89.90
2023-05-03T16:30:50.686Z,90.00
2023-05-03T16:33:18.176Z,89.70
2023-05-03T16:35:45.116Z,89.10
2023-05-03T16:38:12.039Z,88.70
2023-05-03T16:40:40.266Z,88.30
2023-05-03T16:43:07.698Z,88.40
2023-05-03T16:45:34.740Z,88.60
2023-05-03T16:48:04.815Z,88.50
2023-05-03T16:50:32.515Z,88.90
2023-05-03T16:52:59.434Z,88.40
2023-05-03T16:55:26.349Z,89.10
2023-05-03T16:57:53.308Z,88.70
2023-05-03T17:00:21.832Z,89.10
2023-05-03T17:02:49.210Z,87.50
2023-05-03T17:05:16.314Z,87.90
2023-05-03T17:07:43.371Z,87.40
2023-05-03T17:10:10.833Z,87.80
2023-05-03T17:12:37.964Z,87.30
2023-05-03T17:15:05.136Z,86.50
2023-05-03T17:17:33.296Z,86.60
2023-05-03T17:20:00.415Z,88.40
2023-05-03T17:22:27.932Z,87.50
2023-05-03T17:24:56.796Z,88.40
2023-05-03T17:27:24.402Z,88.20
2023-05-03T17:29:51.303Z,88.70
2023-05-03T17:32:18.307Z,87.50
2023-05-03T17:34:45.246Z,87.90
2023-05-03T17:37:12.230Z,88.30
2023-05-03T17:39:39.336Z,88.90
2023-05-03T17:42:06.392Z,88.80
2023-05-03T17:44:33.485Z,88.30
2023-05-03T17:47:00.813Z,89.10
2023-05-03T17:49:27.735Z,88.40
2023-05-03T17:51:54.689Z,89.00
2023-05-03T17:54:21.636Z,87.90
2023-05-03T17:56:48.551Z,87.60
2023-05-03T17:59:16.414Z,87.40
2023-05-03T18:01:43.392Z,87.40
2023-05-03T18:04:10.400Z,88.40
2023-05-03T18:06:37.378Z,88.20
2023-05-03T18:09:04.445Z,88.30
2023-05-03T18:11:31.519Z,88.90
2023-05-03T18:13:58.518Z,88.30
2023-05-03T18:16:25.655Z,89.40
2023-05-03T18:18:53.407Z,89.40
2023-05-03T18:21:21.910Z,89.70
2023-05-03T18:23:49.036Z,89.60
2023-05-03T18:26:16.593Z,89.40
2023-05-03T18:28:43.763Z,90.20
2023-05-03T18:31:11.037Z,90.00
2023-05-03T18:33:39.959Z,90.50
2023-05-03T18:36:11.645Z,90.10
2023-05-03T18:38:38.985Z,90.40
2023-05-03T18:41:13.817Z,90.20
2023-05-03T18:43:41.688Z,90.20
2023-05-03T18:46:09.081Z,90.80
2023-05-03T18:48:36.303Z,90.50
2023-05-03T18:51:04.641Z,90.70
2023-05-03T18:53:34.348Z,90.80
2023-05-03T18:56:02.143Z,91.10
2023-05-03T18:58:29.460Z,91.20
2023-05-03T19:00:58.326Z,91.10
2023-05-03T19:03:31.005Z,90.80
2023-05-03T19:06:03.547Z,91.00
2023-05-03T19:08:30.784Z,90.90
2023-05-03T19:10:57.716Z,90.80
2023-05-03T19:13:25.338Z,91.10
2023-05-03T19:15:52.257Z,90.80
2023-05-03T19:18:19.185Z,91.10
2023-05-03T19:20:46.117Z,91.10
2023-05-03T19:23:13.000Z,91.00
2023-05-03T19:25:39.913Z,91.30
2023-05-03T19:28:07.888Z,91.30
2023-05-03T19:30:34.904Z,91.20
2023-05-03T19:33:01.949Z,91.10
2023-05-03T19:35:28.864Z,91.10
2023-05-03T19:37:55.951Z,91.50
2023-05-03T19:40:24.655Z,91.60
2023-05-03T19:42:52.402Z,91.70
2023-05-03T19:45:19.410Z,91.40
2023-05-03T19:47:46.439Z,91.50
2023-05-03T19:50:13.363Z,91.20
2023-05-03T19:52:41.949Z,91.20
2023-05-03T19:55:09.281Z,91.60
2023-05-03T19:57:36.401Z,91.50
2023-05-03T20:00:05.436Z,91.60
2023-05-03T20:02:32.998Z,91.50
2023-05-03T20:04:59.915Z,91.70
2023-05-03T20:07:27.109Z,91.60
2023-05-03T20:09:54.035Z,91.50
2023-05-03T20:12:20.930Z,91.80
2023-05-03T20:14:47.844Z,91.90
2023-05-03T20:17:14.837Z,91.60
2023-05-03T20:19:41.789Z,91.60
2023-05-03T20:22:08.735Z,91.40
2023-05-03T20:24:35.662Z,91.50
2023-05-03T20:27:03.020Z,91.90
2023-05-03T20:29:29.986Z,91.80
2023-05-03T20:31:56.950Z,92.00
2023-05-03T20:34:23.887Z,91.80
2023-05-03T20:36:51.129Z,91.90
2023-05-03T20:39:18.218Z,91.70
2023-05-03T20:41:45.251Z,91.50
2023-05-03T20:44:12.330Z,91.80
2023-05-03T20:46:39.359Z,91.80
2023-05-03T20:49:09.035Z,91.70
2023-05-03T20:51:36.817Z,91.90
2023-05-03T20:54:03.758Z,92.10
2023-05-03T20:56:31.822Z,91.90
2023-05-03T20:58:58.787Z,91.80
2023-05-03T21:01:25.704Z,91.70
2023-05-03T21:03:52.726Z,91.50
2023-05-03T21:06:19.696Z,91.60
2023-05-03T21:08:46.986Z,91.70
2023-05-03T21:11:13.937Z,91.40
2023-05-03T21:13:41.574Z,91.50
2023-05-03T21:16:09.362Z,91.50
2023-05-03T21:18:36.377Z,91.60
2023-05-03T21:21:03.750Z,91.60
2023-05-03T21:23:30.779Z,91.60
2023-05-03T21:25:57.752Z,91.70
2023-05-03T21:28:24.713Z,91.60
2023-05-03T21:30:53.327Z,91.60
2023-05-03T21:33:21.112Z,91.40
2023-05-03T21:35:49.396Z,91.30
2023-05-03T21:38:17.647Z,91.40
2023-05-03T21:40:46.961Z,91.80
2023-05-03T21:43:14.013Z,92.00
2023-05-03T21:45:41.652Z,91.90
2023-05-03T21:48:08.568Z,91.80
2023-05-03T21:50:39.348Z,91.90
2023-05-03T21:53:07.159Z,92.00
2023-05-03T21:55:34.113Z,92.00
2023-05-03T21:58:01.048Z,91.70
2023-05-03T22:00:28.867Z,92.20
2023-05-03T22:02:55.988Z,92.10
2023-05-03T22:05:24.232Z,92.10
2023-05-03T22:07:51.145Z,92.30
2023-05-03T22:10:18.550Z,92.30
2023-05-03T22:12:46.108Z,92.20
2023-05-03T22:15:13.269Z,92.20
2023-05-03T22:17:40.696Z,92.00
2023-05-03T22:20:08.457Z,92.00
2023-05-03T22:22:35.491Z,91.90
2023-05-03T22:25:02.790Z,92.20
2023-05-03T22:27:29.761Z,92.30
2023-05-03T22:29:56.744Z,92.10
2023-05-03T22:32:23.777Z,92.30
2023-05-03T22:34:50.811Z,92.20
2023-05-03T22:37:17.766Z,92.20
2023-05-03T22:39:44.697Z,92.40
2023-05-03T22:42:12.012Z,92.10
2023-05-03T22:44:38.920Z,92.20
2023-05-03T22:47:05.828Z,92.30
2023-05-03T22:49:32.738Z,92.50
2023-05-03T22:51:59.816Z,92.50
2023-05-03T22:54:27.067Z,92.50
2023-05-03T22:56:54.615Z,92.40
2023-05-03T22:59:21.545Z,92.20
